createdAt,value
2018-02-08T17:35:09.600Z,50.63
2018-02-08T17:36:09.620Z,53.36
2018-02-08T17:37:09.596Z,56.29
2018-02-08T17:38:10.011Z,59.95
2018-02-08T17:39:09.595Z,61.46
2018-02-08T17:40:09.561Z,63.04
2018-02-08T17:41:09.753Z,66.31
2018-02-08T17:42:09.419Z,67.35
2018-02-08T17:43:09.393Z,68.57
2018-02-08T17:44:09.559Z,70.09
2018-02-08T17:45:09.379Z,71.88
2018-02-08T17:46:09.294Z,72.51
2018-02-08T17:47:09.315Z,73.26
2018-02-08T17:48:09.612Z,74.21
2018-02-08T17:50:09.184Z,75.90
2018-02-08T17:52:09.292Z,76.66
2018-02-08T17:53:09.159Z,76.38
2018-02-08T17:54:09.090Z,76.95
2018-02-08T17:55:09.373Z,77.42
2018-02-08T17:57:09.174Z,77.89
2018-02-08T17:58:09.091Z,77.80
2018-02-08T17:59:08.975Z,78.17
2018-02-08T18:00:08.945Z,78.55
2018-02-08T18:02:09.516Z,78.45
2018-02-08T18:03:08.866Z,78.55
2018-02-08T18:04:08.902Z,78.74
2018-02-08T18:05:08.821Z,78.55
2018-02-08T18:06:08.796Z,78.45
2018-02-08T18:08:09.039Z,78.74
2018-02-08T18:09:08.735Z,78.36
2018-02-08T18:10:08.720Z,79.30
2018-02-08T18:11:08.670Z,80.15
2018-02-08T18:12:08.820Z,80.25
2018-02-08T18:13:08.820Z,80.53
2018-02-08T18:14:08.964Z,80.34
2018-02-08T18:15:08.637Z,80.49
2018-02-08T18:16:08.568Z,80.68
2018-02-08T18:17:08.536Z,80.68
2018-02-08T18:18:08.487Z,80.91
2018-02-08T18:19:08.463Z,80.87
2018-02-08T18:20:08.430Z,80.87
2018-02-08T18:21:08.464Z,81.62
2018-02-08T18:22:08.386Z,81.95
2018-02-08T18:23:08.406Z,81.76
2018-02-08T18:24:08.376Z,82.10
2018-02-08T18:25:08.381Z,82.14
2018-02-08T18:26:08.528Z,81.95
2018-02-08T18:27:08.448Z,82.23
2018-02-08T18:28:08.373Z,82.57
2018-02-08T18:29:08.213Z,82.47
2018-02-08T18:30:08.318Z,82.66
2018-02-08T18:31:08.427Z,82.85
2018-02-08T18:32:08.125Z,82.85
2018-02-08T18:33:08.099Z,83.51
2018-02-08T18:34:08.208Z,82.85
2018-02-08T18:35:08.071Z,82.89
2018-02-08T18:36:08.023Z,82.85
2018-02-08T18:37:07.997Z,82.66
2018-02-08T18:38:07.971Z,83.14
2018-02-08T18:39:07.994Z,82.85
2018-02-08T18:40:09.193Z,83.14
2018-02-08T18:41:07.893Z,82.76
2018-02-08T18:42:07.863Z,83.23
2018-02-08T18:43:07.838Z,82.76
2018-02-08T18:44:07.862Z,82.85
2018-02-08T18:45:07.787Z,83.61
2018-02-08T18:46:07.761Z,83.61
2018-02-08T18:47:07.735Z,84.17
2018-02-08T18:48:07.712Z,84.45
2018-02-08T18:49:07.682Z,83.98
2018-02-08T18:50:07.963Z,83.98
2018-02-08T18:51:07.633Z,83.89
2018-02-08T18:52:07.660Z,84.55
2018-02-08T18:53:07.587Z,84.74
2018-02-08T18:54:07.554Z,84.55
2018-02-08T18:55:07.528Z,85.59
2018-02-08T18:56:07.499Z,85.40
2018-02-08T18:57:07.784Z,85.40
2018-02-08T18:58:07.471Z,85.40
2018-02-08T18:59:07.424Z,85.30
2018-02-08T19:00:07.420Z,85.30
2018-02-08T19:01:07.370Z,85.21
2018-02-08T19:02:07.344Z,84.92
2018-02-08T19:03:07.318Z,85.49
2018-02-08T19:04:07.591Z,85.68
2018-02-08T19:05:07.266Z,85.68
2018-02-08T19:06:07.244Z,85.40
2018-02-08T19:07:07.216Z,85.40
2018-02-08T19:08:07.185Z,85.87
2018-02-08T19:09:07.209Z,85.68
2018-02-08T19:10:07.135Z,85.87
2018-02-08T19:11:07.412Z,86.34
2018-02-08T19:12:07.083Z,86.44
2018-02-08T19:13:07.057Z,86.25
2018-02-08T19:14:07.322Z,86.15
2018-02-08T19:15:07.000Z,86.15
2018-02-08T19:16:06.979Z,86.15
2018-02-08T19:17:06.955Z,85.87
2018-02-08T19:18:07.231Z,85.77
2018-02-08T19:19:06.905Z,85.40
2018-02-08T19:20:06.873Z,85.96
2018-02-08T19:23:06.795Z,86.15
2018-02-08T19:24:06.829Z,86.25
2018-02-08T19:25:07.054Z,85.87
2018-02-08T19:26:06.722Z,85.68
2018-02-08T19:27:06.992Z,85.68
2018-02-08T19:28:06.677Z,85.77
2018-02-08T19:29:06.632Z,85.68
2018-02-08T19:30:06.603Z,85.68
2018-02-08T19:31:06.880Z,86.15
2018-02-08T19:32:06.553Z,86.25
2018-02-08T19:33:06.657Z,86.34
2018-02-08T19:34:06.496Z,86.25
2018-02-08T19:35:06.471Z,86.15
2018-02-08T19:36:06.445Z,86.34
2018-02-08T19:37:06.672Z,86.53
2018-02-08T19:38:06.399Z,86.25
2018-02-08T19:40:06.387Z,86.06
2018-02-08T19:41:06.307Z,85.68
2018-02-08T19:42:06.285Z,85.11
2018-02-08T19:43:06.556Z,85.77
2018-02-08T19:44:06.230Z,85.92
2018-02-08T19:47:06.311Z,86.11
2018-02-08T19:48:06.207Z,86.11
2018-02-08T19:49:06.409Z,85.45
2018-02-08T19:50:06.081Z,85.36
2018-02-08T19:51:06.150Z,86.11
2018-02-08T19:53:05.999Z,86.40
2018-02-08T19:55:06.245Z,86.11
2018-02-08T19:57:06.180Z,87.05
2018-02-08T19:59:05.957Z,88.47
2018-02-08T20:00:05.807Z,88.65
2018-02-08T20:01:06.361Z,89.03
2018-02-08T20:02:05.752Z,88.28
2018-02-08T20:03:05.721Z,87.99
2018-02-08T20:04:05.692Z,88.47
2018-02-08T20:05:06.096Z,88.56
2018-02-08T20:06:06.892Z,88.18
2018-02-08T20:07:05.914Z,87.81
2018-02-08T20:08:05.589Z,88.18
2018-02-08T20:09:05.555Z,88.18
2018-02-08T20:10:05.533Z,88.09
2018-02-08T20:11:05.520Z,87.99
2018-02-08T20:12:05.503Z,87.99
2018-02-08T20:13:05.659Z,87.62
2018-02-08T20:14:06.249Z,87.71
2018-02-08T20:15:05.473Z,87.62
2018-02-08T20:16:05.655Z,87.52
2018-02-08T20:17:05.433Z,87.81
2018-02-08T20:18:05.337Z,88.28
2018-02-08T20:19:05.299Z,87.99
2018-02-08T20:20:05.586Z,87.99
2018-02-08T20:21:05.297Z,87.99
2018-02-08T20:22:06.547Z,88.47
2018-02-08T20:23:05.234Z,88.28
2018-02-08T20:24:05.249Z,89.13
2018-02-08T20:25:05.159Z,89.51
2018-02-08T20:26:05.144Z,89.13
2018-02-08T20:27:05.378Z,89.32
2018-02-08T20:28:05.061Z,88.84
2018-02-08T20:29:05.020Z,88.28
2018-02-08T20:30:04.983Z,88.56
2018-02-08T20:31:04.956Z,88.84
2018-02-08T20:32:04.937Z,88.84
2018-02-08T20:33:04.905Z,89.22
2018-02-08T20:34:05.125Z,89.51
2018-02-08T20:35:04.858Z,89.51
2018-02-08T20:36:04.820Z,89.79
2018-02-08T20:37:04.794Z,88.94
2018-02-08T20:38:04.763Z,88.47
2018-02-08T20:39:04.737Z,88.28
2018-02-08T20:40:04.710Z,89.13
2018-02-08T20:41:04.992Z,89.41
2018-02-08T20:42:04.720Z,89.98
2018-02-08T20:43:04.636Z,90.36
2018-02-08T20:44:04.612Z,90.26
2018-02-08T20:45:04.575Z,90.17
2018-02-08T20:46:04.545Z,90.17
2018-02-08T20:47:04.520Z,89.32
2018-02-08T20:48:04.790Z,89.79
2018-02-08T20:49:04.461Z,89.69
2018-02-08T20:50:04.436Z,89.69
2018-02-08T20:51:04.416Z,89.69
2018-02-08T20:52:04.379Z,89.51
2018-02-08T20:53:04.363Z,89.51
2018-02-08T20:54:04.631Z,89.60
2018-02-08T20:55:04.298Z,89.32
2018-02-08T20:56:04.273Z,89.22
2018-02-08T20:57:04.320Z,89.32
2018-02-08T20:58:04.212Z,89.60
2018-02-08T20:59:04.185Z,89.84
2018-02-08T21:00:04.157Z,89.41
2018-02-08T21:01:04.430Z,89.98
2018-02-08T21:02:04.102Z,89.98
2018-02-08T21:03:04.166Z,89.84
2018-02-08T21:04:04.049Z,89.56
2018-02-08T21:05:04.033Z,89.65
2018-02-08T21:06:04.030Z,89.27
2018-02-08T21:07:04.269Z,89.46
2018-02-08T21:08:03.998Z,89.46
2018-02-08T21:09:03.908Z,89.46
2018-02-08T21:10:03.878Z,90.03
2018-02-08T21:11:03.861Z,90.12
2018-02-08T21:12:37.404Z,90.59
2018-02-08T21:13:03.793Z,91.35
2018-02-08T21:14:03.772Z,91.06
2018-02-08T21:15:04.023Z,91.16
2018-02-08T21:16:03.711Z,91.25
2018-02-08T21:17:03.683Z,91.25
2018-02-08T21:18:03.692Z,90.97
2018-02-08T21:19:03.933Z,90.50
2018-02-08T21:20:03.603Z,89.84
2018-02-08T21:21:03.571Z,89.74
2018-02-08T21:22:03.543Z,90.03
2018-02-08T21:23:03.514Z,90.50
2018-02-08T21:24:03.652Z,90.59
2018-02-08T21:25:03.938Z,90.78
2018-02-08T21:26:03.440Z,90.69
2018-02-08T21:27:03.411Z,90.88
2018-02-08T21:28:03.380Z,90.88
2018-02-08T21:29:03.351Z,91.06
2018-02-08T21:30:03.318Z,90.88
2018-02-08T21:32:03.262Z,90.78
2018-02-08T21:34:03.853Z,90.50
2018-02-08T21:35:03.179Z,90.03
2018-02-08T21:36:03.152Z,90.59
2018-02-08T21:37:03.175Z,90.12
2018-02-08T21:38:03.143Z,90.22
2018-02-08T21:39:03.063Z,90.31
2018-02-08T21:40:03.037Z,90.22
2018-02-08T21:41:03.260Z,90.12
2018-02-08T21:42:02.978Z,90.31
2018-02-08T21:43:02.951Z,90.69
2018-02-08T21:44:02.923Z,90.69
2018-02-08T21:45:02.894Z,90.78
2018-02-08T21:46:02.867Z,91.44
2018-02-08T21:47:02.837Z,90.78
2018-02-08T21:48:03.216Z,90.50
2018-02-08T21:49:02.781Z,90.69
2018-02-08T21:50:02.752Z,90.12
2018-02-08T21:51:02.723Z,90.41
2018-02-08T21:52:02.695Z,90.59
2018-02-08T21:53:02.677Z,90.69
2018-02-08T21:54:02.642Z,90.12
2018-02-08T21:55:02.915Z,90.78
2018-02-08T21:56:02.581Z,90.69
2018-02-08T21:57:02.555Z,90.78
2018-02-08T21:58:02.575Z,90.41
2018-02-08T21:59:02.496Z,90.69
2018-02-08T22:00:02.466Z,90.69
2018-02-08T22:01:02.440Z,90.50
2018-02-08T22:02:02.718Z,90.78
2018-02-08T22:03:02.432Z,90.22
2018-02-08T22:04:02.356Z,90.41
2018-02-08T22:05:02.325Z,90.59
2018-02-08T22:06:02.299Z,90.22
2018-02-08T22:07:02.271Z,89.93
2018-02-08T22:08:02.249Z,90.59
2018-02-08T22:09:02.508Z,90.97
2018-02-08T22:10:02.232Z,90.41
2018-02-08T22:11:02.172Z,90.22
2018-02-08T22:12:02.129Z,89.93
2018-02-08T22:13:02.102Z,90.88
2018-02-08T22:14:02.068Z,90.22
2018-02-08T22:15:02.339Z,90.12
2018-02-08T22:16:02.010Z,89.93
2018-02-08T22:17:01.981Z,90.41
2018-02-08T22:18:01.951Z,90.50
2018-02-08T22:19:01.981Z,90.59
2018-02-08T22:20:01.898Z,90.88
2018-02-08T22:21:01.898Z,90.22
2018-02-08T22:22:01.838Z,90.59
2018-02-08T22:23:01.812Z,90.97
2018-02-08T22:24:01.839Z,90.31
2018-02-08T22:25:01.752Z,89.74
2018-02-08T22:26:01.723Z,90.31
2018-02-08T22:27:01.944Z,90.41
2018-02-08T22:28:01.711Z,90.12
2018-02-08T22:29:01.636Z,90.22
2018-02-08T22:30:01.614Z,90.22
2018-02-08T22:31:01.581Z,90.59
2018-02-08T22:32:01.554Z,90.78
2018-02-08T22:33:01.826Z,90.78
2018-02-08T22:34:01.494Z,90.69
2018-02-08T22:35:01.462Z,90.59
2018-02-08T22:36:01.436Z,90.69
2018-02-08T22:37:01.408Z,90.97
2018-02-08T22:38:01.394Z,90.59
2018-02-08T22:39:01.649Z,90.59
2018-02-08T22:40:01.321Z,90.41
2018-02-08T22:41:01.291Z,89.93
2018-02-08T22:42:01.267Z,90.22
2018-02-08T22:43:01.233Z,89.56
2018-02-08T22:44:01.206Z,89.93
2018-02-08T22:45:01.477Z,89.74
2018-02-08T22:46:01.152Z,90.03
2018-02-08T22:47:01.120Z,90.41
2018-02-08T22:48:01.092Z,90.31
2018-02-08T22:49:01.068Z,90.12
2018-02-08T22:50:01.036Z,89.27
2018-02-08T22:51:01.004Z,90.03
2018-02-08T22:52:01.227Z,89.84
2018-02-08T22:53:00.945Z,90.22
2018-02-08T22:54:00.926Z,90.78
2018-02-08T22:55:00.889Z,90.97
2018-02-08T22:56:00.863Z,90.59
2018-02-08T22:57:00.833Z,90.97
2018-02-08T22:58:00.809Z,90.41
2018-02-08T22:59:01.076Z,89.74
2018-02-08T23:00:00.743Z,89.74
2018-02-08T23:01:00.730Z,89.46
2018-02-08T23:02:00.691Z,89.27
2018-02-08T23:03:00.658Z,89.74
2018-02-08T23:04:00.630Z,89.74
2018-02-08T23:05:00.597Z,89.84
2018-02-08T23:06:00.877Z,89.84
2018-02-08T23:07:00.542Z,90.03
2018-02-08T23:08:00.531Z,90.41
2018-02-08T23:09:00.485Z,90.69
2018-02-08T23:10:00.456Z,90.78
2018-02-08T23:11:00.427Z,90.59
2018-02-08T23:13:00.376Z,91.16
2018-02-08T23:14:00.642Z,91.53
2018-02-08T23:15:00.312Z,91.25
2018-02-08T23:16:00.280Z,90.97
2018-02-08T23:17:00.250Z,91.06
2018-02-08T23:18:00.227Z,90.31
2018-02-08T23:19:00.197Z,90.31
2018-02-08T23:20:00.475Z,89.74
2018-02-08T23:21:00.385Z,90.03
2018-02-08T23:22:00.117Z,89.74
2018-02-08T23:23:00.078Z,90.22
2018-02-08T23:24:00.049Z,90.22
2018-02-08T23:25:00.026Z,90.22
2018-02-08T23:25:59.990Z,89.74
2018-02-08T23:26:59.962Z,89.56
2018-02-08T23:28:00.241Z,89.27
2018-02-08T23:28:59.904Z,88.52
2018-02-08T23:29:59.873Z,88.42
2018-02-08T23:30:59.846Z,88.52
2018-02-08T23:31:59.816Z,88.71
2018-02-08T23:32:59.787Z,88.23
2018-02-08T23:34:00.010Z,88.23
2018-02-08T23:34:59.729Z,88.33
2018-02-08T23:35:59.701Z,88.23
2018-02-08T23:36:59.672Z,88.23
2018-02-08T23:37:59.649Z,88.42
2018-02-08T23:38:59.624Z,88.99
2018-02-08T23:39:59.888Z,89.18
2018-02-08T23:40:59.605Z,89.37
2018-02-08T23:41:59.527Z,89.74
2018-02-08T23:42:59.496Z,90.31
2018-02-08T23:43:59.568Z,90.50
2018-02-08T23:44:59.440Z,90.41
2018-02-08T23:45:59.716Z,90.97
2018-02-08T23:46:59.379Z,90.78
2018-02-08T23:47:59.355Z,90.59
2018-02-08T23:48:59.324Z,89.84
2018-02-08T23:49:59.396Z,90.31
2018-02-08T23:50:59.268Z,90.50
2018-02-08T23:51:59.534Z,90.12
2018-02-08T23:52:59.209Z,89.79
2018-02-08T23:53:59.184Z,89.98
2018-02-08T23:54:59.146Z,89.89
2018-02-08T23:55:59.120Z,90.03
2018-02-08T23:56:59.088Z,90.22
2018-02-08T23:57:59.367Z,90.03
2018-02-08T23:58:59.033Z,90.03
2018-02-08T23:59:59.003Z,90.97
